Time;durP1;ratioP1;P1;durP2;ratioP2;P2;SDS_P1;SDS_P2;PMS_P1;PMS_P2;Temp;Humidity;BMP_temperature;BMP_pressure;BME280_temperature;BME280_humidity;BME280_pressure;Samples;Min_cycle;Max_cycle;Signal;HPM_P1;HPM_P2
2023/12/22 00:00:18;;;;;;;18.33;3.00;;;5.00;99.90;;;;;;5146744;27;20043;-78
2023/12/22 00:02:44;;;;;;;19.05;2.88;;;5.00;99.90;;;;;;5111422;28;20038;-77
2023/12/22 00:05:09;;;;;;;10.68;2.40;;;5.00;99.90;;;;;;5110649;28;20381;-77
2023/12/22 00:07:35;;;;;;;14.75;3.00;;;5.00;99.90;;;;;;5119452;28;20032;-78
2023/12/22 00:10:00;;;;;;;15.38;3.25;;;5.10;99.90;;;;;;5101950;28;20093;-77
2023/12/22 00:12:26;;;;;;;14.35;2.67;;;5.20;99.90;;;;;;5100182;27;20032;-77
2023/12/22 00:14:52;;;;;;;13.82;3.20;;;5.40;99.90;;;;;;5118538;27;20031;-77
2023/12/22 00:17:17;;;;;;;18.08;3.58;;;5.40;99.90;;;;;;5119094;28;20079;-77
2023/12/22 00:19:43;;;;;;;17.55;2.80;;;5.50;99.90;;;;;;5153623;27;20126;-76
2023/12/22 00:22:09;;;;;;;18.70;2.75;;;5.40;99.90;;;;;;5136146;27;20487;-76
2023/12/22 00:24:34;;;;;;;13.07;2.40;;;5.50;99.90;;;;;;5151698;27;20035;-76
2023/12/22 00:27:00;;;;;;;16.40;3.10;;;5.60;99.90;;;;;;5118368;27;20078;-76
2023/12/22 00:29:28;;;;;;;8.30;1.88;;;5.60;99.90;;;;;;5102103;28;20407;-76
2023/12/22 00:31:54;;;;;;;27.20;3.53;;;5.60;99.90;;;;;;5153594;27;20114;-76
2023/12/22 00:34:22;;;;;;;14.65;2.53;;;5.60;99.90;;;;;;5133635;27;20126;-76
2023/12/22 00:36:47;;;;;;;13.43;2.47;;;5.70;99.90;;;;;;5140510;27;20172;-76
2023/12/22 00:39:13;;;;;;;13.07;2.63;;;5.50;99.90;;;;;;5153406;27;20066;-77
2023/12/22 00:41:39;;;;;;;11.40;2.63;;;5.50;99.90;;;;;;5135910;27;20040;-77
2023/12/22 00:44:04;;;;;;;13.05;2.97;;;5.40;99.90;;;;;;5100617;28;20039;-77
2023/12/22 00:46:30;;;;;;;17.13;3.13;;;5.50;99.90;;;;;;5117520;27;20043;-77
2023/12/22 00:48:56;;;;;;;17.85;3.03;;;5.40;99.90;;;;;;5118656;28;20061;-77
2023/12/22 00:51:21;;;;;;;19.85;2.55;;;5.30;99.90;;;;;;5101761;28;20074;-77
2023/12/22 00:53:47;;;;;;;12.38;2.20;;;5.30;99.90;;;;;;5152266;27;20066;-77
2023/12/22 00:56:13;;;;;;;13.60;2.28;;;5.30;99.90;;;;;;5134673;27;20036;-77
2023/12/22 00:58:40;;;;;;;18.70;2.55;;;5.30;99.90;;;;;;5152599;27;20059;-77
2023/12/22 01:01:05;;;;;;;16.90;2.50;;;5.30;99.90;;;;;;5135902;27;20043;-77
2023/12/22 01:03:31;;;;;;;17.90;2.60;;;5.30;99.90;;;;;;5117586;27;20085;-77
2023/12/22 01:05:57;;;;;;;13.77;2.60;;;5.30;99.90;;;;;;5118548;28;20035;-77
2023/12/22 01:08:22;;;;;;;17.52;2.78;;;5.30;99.90;;;;;;5117786;27;20035;-77
2023/12/22 01:10:48;;;;;;;21.15;3.13;;;5.30;99.90;;;;;;5135604;27;20035;-77
2023/12/22 01:13:14;;;;;;;12.77;2.13;;;5.30;99.90;;;;;;5132715;27;20032;-78
2023/12/22 01:15:40;;;;;;;17.85;3.08;;;5.30;99.90;;;;;;5135804;27;20058;-78
2023/12/22 01:18:05;;;;;;;18.50;3.05;;;5.10;99.90;;;;;;5132705;27;20377;-79
2023/12/22 01:20:31;;;;;;;18.63;3.33;;;5.20;99.90;;;;;;5115170;28;20411;-79
2023/12/22 01:22:56;;;;;;;17.75;3.22;;;5.10;99.90;;;;;;5147190;27;20032;-79
2023/12/22 01:25:23;;;;;;;17.55;2.92;;;5.20;99.90;;;;;;5132162;27;20043;-79
2023/12/22 01:27:52;;;;;;;16.40;2.80;;;5.30;99.90;;;;;;5129844;27;20055;-79
2023/12/22 01:30:18;;;;;;;29.05;3.75;;;5.30;99.90;;;;;;5097968;28;20035;-78
2023/12/22 01:32:44;;;;;;;18.58;3.30;;;5.40;99.90;;;;;;5095570;28;20063;-78
2023/12/22 01:35:10;;;;;;;12.75;2.03;;;5.50;99.90;;;;;;5149381;27;20601;-78
2023/12/22 01:37:38;;;;;;;12.93;2.28;;;5.40;99.90;;;;;;5129692;27;20043;-78
2023/12/22 01:40:05;;;;;;;13.55;2.80;;;5.40;99.90;;;;;;5097885;28;20518;-78
2023/12/22 01:42:31;;;;;;;14.63;2.13;;;5.40;99.90;;;;;;5095929;28;20505;-78
2023/12/22 01:44:56;;;;;;;13.05;2.28;;;5.30;99.90;;;;;;5149116;27;20047;-78
2023/12/22 01:47:22;;;;;;;16.25;2.55;;;5.40;99.90;;;;;;5129996;27;20364;-78
2023/12/22 01:49:48;;;;;;;14.18;2.33;;;5.30;99.90;;;;;;5114910;28;20035;-78
2023/12/22 01:52:16;;;;;;;12.77;3.25;;;5.30;99.90;;;;;;5128794;27;20044;-77
2023/12/22 01:54:42;;;;;;;20.25;3.95;;;5.40;99.90;;;;;;5105900;28;20123;-78
2023/12/22 01:57:08;;;;;;;11.32;2.03;;;5.50;99.90;;;;;;5114859;28;20078;-79
2023/12/22 01:59:34;;;;;;;19.23;2.88;;;5.50;99.90;;;;;;5112912;28;20408;-77
2023/12/22 02:02:02;;;;;;;18.92;2.53;;;5.60;99.90;;;;;;5114433;28;20043;-77
2023/12/22 02:04:30;;;;;;;25.65;4.03;;;5.50;99.90;;;;;;5113020;27;20055;-77
2023/12/22 02:06:58;;;;;;;16.83;3.03;;;5.50;99.90;;;;;;5112392;28;20047;-77
2023/12/22 02:09:24;;;;;;;17.77;3.33;;;5.50;99.90;;;;;;5112564;28;20035;-76
2023/12/22 02:11:49;;;;;;;18.27;3.25;;;5.60;99.90;;;;;;5097498;28;20042;-76
2023/12/22 02:14:15;;;;;;;13.82;2.70;;;5.60;99.90;;;;;;5096163;28;20035;-76
2023/12/22 02:16:47;;;;;;;16.92;2.00;;;5.60;99.90;;;;;;5097361;28;20063;-77
2023/12/22 02:19:38;;;;;;;19.95;2.67;;;5.70;99.90;;;;;;5111815;28;20043;-76
2023/12/22 02:22:05;;;;;;;16.73;3.30;;;5.70;99.90;;;;;;5111933;28;20040;-76
2023/12/22 02:24:30;;;;;;;15.80;3.13;;;5.80;99.90;;;;;;5113078;27;20121;-76
2023/12/22 02:27:09;;;;;;;20.77;2.78;;;5.80;99.90;;;;;;5112944;28;20070;-76
2023/12/22 02:29:45;;;;;;;17.98;3.10;;;5.80;99.90;;;;;;5096052;28;20093;-78
2023/12/22 02:32:21;;;;;;;17.48;3.40;;;5.90;99.90;;;;;;5111269;27;20067;-76
2023/12/22 02:34:50;;;;;;;23.83;3.90;;;5.80;99.90;;;;;;5129711;27;20035;-76
2023/12/22 02:37:18;;;;;;;15.35;2.70;;;5.80;99.90;;;;;;5095548;28;20046;-76
2023/12/22 02:39:44;;;;;;;18.60;4.20;;;5.70;99.90;;;;;;5096409;28;20122;-76
2023/12/22 02:42:10;;;;;;;11.63;2.22;;;5.60;99.90;;;;;;5094408;28;20039;-76
2023/12/22 02:44:36;;;;;;;14.82;2.53;;;5.70;99.90;;;;;;5112640;28;20568;-76
2023/12/22 02:47:02;;;;;;;13.45;2.03;;;5.60;99.90;;;;;;5110659;28;20071;-76
2023/12/22 02:49:27;;;;;;;10.27;2.13;;;5.60;99.90;;;;;;5113520;28;20475;-76
2023/12/22 02:51:53;;;;;;;10.45;2.20;;;5.60;99.90;;;;;;5094268;27;20114;-76
2023/12/22 02:54:18;;;;;;;17.35;3.13;;;5.50;99.90;;;;;;5095375;28;20092;-76
2023/12/22 02:56:48;;;;;;;15.68;2.80;;;5.60;99.90;;;;;;5112494;28;20047;-76
2023/12/22 02:59:14;;;;;;;14.27;3.33;;;5.60;99.90;;;;;;5095655;28;20127;-76
2023/12/22 03:01:40;;;;;;;16.00;2.72;;;5.50;99.90;;;;;;5146045;27;20083;-76
2023/12/22 03:04:05;;;;;;;17.95;3.67;;;5.50;99.90;;;;;;5129251;27;20115;-76
2023/12/22 03:06:31;;;;;;;18.48;2.85;;;5.70;99.90;;;;;;5128757;27;20035;-76
2023/12/22 03:08:56;;;;;;;16.75;3.03;;;5.70;99.90;;;;;;5127669;27;20036;-76
2023/12/22 03:11:22;;;;;;;13.93;2.00;;;5.70;99.90;;;;;;5092970;28;20032;-77
2023/12/22 03:13:48;;;;;;;17.38;2.78;;;5.80;99.90;;;;;;5085649;28;20621;-75
2023/12/22 03:16:13;;;;;;;10.82;2.22;;;5.80;99.90;;;;;;5127413;27;20044;-76
2023/12/22 03:18:39;;;;;;;10.75;2.10;;;5.70;99.90;;;;;;5138462;27;20092;-75
2023/12/22 03:21:05;;;;;;;30.77;2.45;;;5.80;99.90;;;;;;5095949;28;20404;-76
2023/12/22 03:23:31;;;;;;;14.77;3.20;;;5.80;99.90;;;;;;5108742;27;20114;-76
2023/12/22 03:25:56;;;;;;;14.32;2.80;;;5.70;99.90;;;;;;5112853;28;20031;-76
2023/12/22 03:28:22;;;;;;;12.13;2.22;;;5.60;99.90;;;;;;5093261;28;20055;-77
2023/12/22 03:30:47;;;;;;;18.02;3.38;;;5.50;99.90;;;;;;5113033;28;20494;-76
2023/12/22 03:33:13;;;;;;;18.52;2.95;;;5.50;99.90;;;;;;5094377;28;20027;-77
2023/12/22 03:35:39;;;;;;;14.88;1.98;;;5.50;99.90;;;;;;5128597;27;20521;-77
2023/12/22 03:38:04;;;;;;;10.05;1.95;;;5.40;99.90;;;;;;5112724;28;20050;-77
2023/12/22 03:40:30;;;;;;;14.05;2.38;;;5.50;99.90;;;;;;5094515;28;20046;-77
2023/12/22 03:42:56;;;;;;;16.85;2.45;;;5.50;99.90;;;;;;5112318;28;20130;-77
2023/12/22 03:45:21;;;;;;;10.25;1.88;;;5.70;99.90;;;;;;5110816;28;20536;-77
2023/12/22 03:47:47;;;;;;;15.27;2.13;;;5.70;99.90;;;;;;5095712;28;20043;-77
2023/12/22 03:50:13;;;;;;;11.95;1.90;;;5.70;99.90;;;;;;5094875;28;20036;-77
2023/12/22 03:52:38;;;;;;;16.65;2.72;;;5.80;99.90;;;;;;5112236;28;20065;-76
2023/12/22 03:55:04;;;;;;;13.35;2.70;;;5.70;99.90;;;;;;5127348;27;20452;-77
2023/12/22 03:57:30;;;;;;;14.10;2.58;;;5.70;99.90;;;;;;5110668;28;20043;-77
2023/12/22 03:59:55;;;;;;;20.02;3.30;;;5.80;99.90;;;;;;5112286;28;20188;-77
2023/12/22 04:02:22;;;;;;;16.20;2.63;;;5.70;99.90;;;;;;5092727;28;20039;-77
2023/12/22 04:04:47;;;;;;;14.32;1.92;;;5.80;99.90;;;;;;5129519;28;20365;-76
2023/12/22 04:07:13;;;;;;;13.80;2.88;;;5.80;99.90;;;;;;5127336;27;20038;-77
2023/12/22 04:09:39;;;;;;;18.27;3.00;;;5.70;99.90;;;;;;5148053;27;20031;-77
2023/12/22 04:12:05;;;;;;;17.05;2.72;;;5.70;99.90;;;;;;5128393;28;20483;-77
2023/12/22 04:14:30;;;;;;;16.00;2.65;;;5.70;99.90;;;;;;5094560;28;20616;-76
2023/12/22 04:16:57;;;;;;;18.92;3.15;;;5.70;99.90;;;;;;5120959;28;20047;-76
2023/12/22 04:19:22;;;;;;;15.57;2.92;;;5.60;99.90;;;;;;5112755;28;20438;-76
2023/12/22 04:21:48;;;;;;;18.10;3.25;;;5.60;99.90;;;;;;5094307;28;20044;-76
2023/12/22 04:24:14;;;;;;;21.58;3.65;;;5.60;99.90;;;;;;5094273;28;20040;-77
2023/12/22 04:26:39;;;;;;;20.10;3.20;;;5.60;99.90;;;;;;5145147;27;20556;-77
2023/12/22 04:29:05;;;;;;;13.85;2.70;;;5.60;99.90;;;;;;5095501;28;20039;-77
2023/12/22 04:31:31;;;;;;;13.77;2.72;;;5.60;99.90;;;;;;5093091;28;20035;-77
2023/12/22 04:33:56;;;;;;;20.55;4.05;;;5.60;99.90;;;;;;5111441;28;20063;-76
2023/12/22 04:36:22;;;;;;;16.00;2.67;;;5.60;99.90;;;;;;5112174;28;20483;-76
2023/12/22 04:38:48;;;;;;;23.20;2.92;;;5.60;99.90;;;;;;5093937;28;20470;-76
2023/12/22 04:41:13;;;;;;;23.30;2.95;;;5.80;99.90;;;;;;5111395;28;20028;-76
2023/12/22 04:43:39;;;;;;;15.20;3.35;;;5.70;99.90;;;;;;5144544;27;20039;-76
2023/12/22 04:46:04;;;;;;;17.27;3.13;;;5.80;99.90;;;;;;5144111;27;20031;-76
2023/12/22 04:48:31;;;;;;;19.67;3.38;;;5.90;99.90;;;;;;5109782;28;20075;-76
2023/12/22 04:50:56;;;;;;;19.05;2.75;;;5.90;99.90;;;;;;5094960;28;20036;-77
2023/12/22 04:53:22;;;;;;;15.07;2.67;;;6.10;99.90;;;;;;5111322;27;20040;-76
2023/12/22 04:55:47;;;;;;;22.60;3.60;;;6.10;99.90;;;;;;5150050;27;20039;-76
2023/12/22 04:58:13;;;;;;;16.08;2.60;;;6.20;99.90;;;;;;5146940;27;20054;-76
2023/12/22 05:00:38;;;;;;;18.67;3.22;;;6.10;99.90;;;;;;5099032;28;20495;-76
2023/12/22 05:03:04;;;;;;;13.88;2.72;;;6.20;99.90;;;;;;5112750;28;20039;-76
2023/12/22 05:05:30;;;;;;;18.42;3.08;;;6.20;99.90;;;;;;5132718;27;20051;-76
2023/12/22 05:07:55;;;;;;;18.25;3.30;;;6.20;99.90;;;;;;5114950;28;20400;-76
2023/12/22 05:10:21;;;;;;;14.85;2.60;;;6.20;99.90;;;;;;5097909;28;20035;-76
2023/12/22 05:12:47;;;;;;;19.38;2.75;;;6.30;99.90;;;;;;5114747;27;20476;-76
2023/12/22 05:15:12;;;;;;;19.95;2.90;;;6.20;99.90;;;;;;5148855;27;20032;-76
2023/12/22 05:17:40;;;;;;;15.50;2.58;;;6.30;99.90;;;;;;5097317;28;20050;-76
2023/12/22 05:20:06;;;;;;;20.92;2.75;;;6.40;99.90;;;;;;5097097;28;20039;-76
2023/12/22 05:22:32;;;;;;;16.15;3.05;;;6.20;99.90;;;;;;5097961;28;20097;-76
2023/12/22 05:24:58;;;;;;;16.70;2.25;;;6.40;99.90;;;;;;5097367;28;20483;-76
2023/12/22 05:27:24;;;;;;;21.67;3.60;;;6.30;99.90;;;;;;5114737;27;20032;-76
2023/12/22 05:29:50;;;;;;;17.35;3.03;;;6.40;99.90;;;;;;5113411;28;20404;-75
2023/12/22 05:32:16;;;;;;;11.93;2.55;;;6.40;99.90;;;;;;5095171;28;20042;-76
2023/12/22 05:34:41;;;;;;;17.63;3.00;;;6.40;99.90;;;;;;5096595;28;20035;-76
2023/12/22 05:37:07;;;;;;;19.50;2.78;;;6.40;99.90;;;;;;5131541;27;20040;-76
2023/12/22 05:39:33;;;;;;;14.75;2.40;;;6.40;99.90;;;;;;5114979;28;20411;-76
2023/12/22 05:41:58;;;;;;;15.55;2.63;;;6.50;99.90;;;;;;5112862;28;20431;-76
2023/12/22 05:44:24;;;;;;;18.95;4.03;;;6.40;99.90;;;;;;5114526;27;20153;-76
2023/12/22 05:46:50;;;;;;;13.68;2.58;;;6.40;99.90;;;;;;5113805;27;20491;-75
2023/12/22 05:49:16;;;;;;;22.63;3.88;;;6.40;99.90;;;;;;5114744;28;20032;-75
2023/12/22 05:51:41;;;;;;;17.83;3.60;;;6.40;99.90;;;;;;5096036;28;20032;-75
2023/12/22 05:54:08;;;;;;;14.45;3.08;;;6.40;99.90;;;;;;5113734;27;20042;-76
2023/12/22 05:56:34;;;;;;;19.00;2.95;;;6.50;99.90;;;;;;5147862;27;20041;-76
2023/12/22 05:59:00;;;;;;;17.23;2.97;;;6.40;99.90;;;;;;5113918;28;20126;-75
2023/12/22 06:01:25;;;;;;;21.48;3.50;;;6.50;99.90;;;;;;5097083;28;20492;-75
2023/12/22 06:03:51;;;;;;;14.63;3.15;;;6.40;99.90;;;;;;5110854;27;20078;-76
2023/12/22 06:06:18;;;;;;;23.58;3.28;;;6.50;99.90;;;;;;5131526;27;20035;-75
2023/12/22 06:08:44;;;;;;;15.05;2.90;;;6.40;99.90;;;;;;5129812;27;20047;-75
2023/12/22 06:11:09;;;;;;;22.00;2.95;;;6.40;99.90;;;;;;5096193;27;20476;-75
2023/12/22 06:13:35;;;;;;;19.45;3.30;;;6.40;99.90;;;;;;5095620;28;20031;-76
2023/12/22 06:16:01;;;;;;;17.98;3.25;;;6.40;99.90;;;;;;5111350;27;20032;-75
2023/12/22 06:18:26;;;;;;;17.58;2.83;;;6.40;99.90;;;;;;5100440;28;20031;-75
2023/12/22 06:20:52;;;;;;;17.52;3.08;;;6.50;99.90;;;;;;5091900;27;20035;-75
2023/12/22 06:23:18;;;;;;;15.00;2.08;;;6.40;99.90;;;;;;5148781;27;20484;-75
2023/12/22 06:25:46;;;;;;;17.48;2.75;;;6.50;99.90;;;;;;5113236;27;20035;-76
2023/12/22 06:28:12;;;;;;;17.40;3.00;;;6.40;99.90;;;;;;5131919;27;20449;-76
2023/12/22 06:30:37;;;;;;;14.20;3.13;;;6.40;99.90;;;;;;5114069;28;20118;-75
2023/12/22 06:33:03;;;;;;;12.38;2.10;;;6.50;99.90;;;;;;5112874;28;20082;-76
2023/12/22 06:35:31;;;;;;;15.40;2.50;;;6.50;99.90;;;;;;5113755;28;20043;-75
2023/12/22 06:38:01;;;;;;;10.85;1.55;;;6.50;99.90;;;;;;5097097;28;20062;-76
2023/12/22 06:40:26;;;;;;;11.73;2.10;;;6.50;99.90;;;;;;5117409;27;20152;-75
2023/12/22 06:42:52;;;;;;;10.48;2.20;;;6.50;99.90;;;;;;5117025;27;20495;-75
2023/12/22 06:45:18;;;;;;;15.60;2.63;;;6.40;99.90;;;;;;5116572;27;20039;-75
2023/12/22 06:47:43;;;;;;;14.10;2.42;;;6.50;99.90;;;;;;5113461;28;20149;-75
2023/12/22 06:50:09;;;;;;;14.73;2.42;;;6.50;99.90;;;;;;5096445;28;20045;-76
2023/12/22 06:52:35;;;;;;;16.77;2.25;;;6.50;99.90;;;;;;5113557;28;20400;-75
2023/12/22 06:55:00;;;;;;;13.00;2.13;;;6.50;99.90;;;;;;5112195;28;20130;-75
2023/12/22 06:57:29;;;;;;;11.32;2.17;;;6.50;99.90;;;;;;5096931;28;20126;-76
2023/12/22 06:59:55;;;;;;;8.82;1.52;;;6.50;99.90;;;;;;5096205;28;20142;-75
2023/12/22 07:02:20;;;;;;;11.52;1.90;;;6.50;99.90;;;;;;5096445;28;20045;-76
2023/12/22 07:05:08;;;;;;;13.57;2.33;;;6.50;99.90;;;;;;5143007;27;20127;-76
2023/12/22 07:07:34;;;;;;;12.18;2.03;;;6.50;99.90;;;;;;5105438;27;20040;-75
2023/12/22 07:09:59;;;;;;;13.25;2.42;;;6.50;99.90;;;;;;5113128;28;20069;-76
2023/12/22 07:12:25;;;;;;;16.88;3.35;;;6.40;99.90;;;;;;5113132;28;20038;-76
2023/12/22 07:14:50;;;;;;;17.08;2.88;;;6.40;99.90;;;;;;5094652;28;20047;-76
2023/12/22 07:17:16;;;;;;;17.58;2.97;;;6.50;99.90;;;;;;5113296;27;20047;-76
2023/12/22 07:19:42;;;;;;;16.83;2.90;;;6.40;99.90;;;;;;5096199;28;20066;-76
2023/12/22 07:22:07;;;;;;;13.95;2.40;;;6.50;99.90;;;;;;5130144;27;20073;-76
2023/12/22 07:24:33;;;;;;;15.82;2.70;;;6.40;99.90;;;;;;5112688;28;20117;-75
2023/12/22 07:26:59;;;;;;;9.70;2.30;;;6.40;99.90;;;;;;5111874;28;20085;-75
2023/12/22 07:29:24;;;;;;;12.32;2.17;;;6.30;99.90;;;;;;5112863;28;20065;-75
2023/12/22 07:31:50;;;;;;;13.90;2.42;;;6.40;99.90;;;;;;5112743;28;20036;-76
2023/12/22 07:34:17;;;;;;;10.70;2.05;;;6.40;99.90;;;;;;5093131;27;20044;-77
2023/12/22 07:36:43;;;;;;;14.70;2.75;;;6.40;99.90;;;;;;5088043;27;20051;-76
2023/12/22 07:39:09;;;;;;;11.77;2.42;;;6.40;99.90;;;;;;5121870;27;20043;-76
2023/12/22 07:41:35;;;;;;;14.95;2.20;;;6.50;99.90;;;;;;5124185;27;20048;-76
2023/12/22 07:44:01;;;;;;;15.48;2.70;;;6.60;99.90;;;;;;5119671;27;20047;-76
2023/12/22 07:46:28;;;;;;;16.63;1.95;;;6.50;99.90;;;;;;5122207;27;20048;-75
2023/12/22 07:48:54;;;;;;;15.85;2.17;;;6.50;99.90;;;;;;5098101;27;20048;-76
2023/12/22 07:51:20;;;;;;;13.55;2.22;;;6.50;99.90;;;;;;5089283;27;20626;-76
2023/12/22 07:53:46;;;;;;;12.45;2.20;;;6.50;99.90;;;;;;5098810;28;20081;-75
2023/12/22 07:56:12;;;;;;;17.65;2.97;;;6.50;99.90;;;;;;5128576;27;20036;-75
2023/12/22 07:58:38;;;;;;;16.13;2.72;;;6.60;99.90;;;;;;5122417;27;20393;-75
2023/12/22 08:01:05;;;;;;;13.07;2.13;;;6.50;99.90;;;;;;5116074;27;20035;-75
2023/12/22 08:03:31;;;;;;;14.73;2.40;;;6.40;99.90;;;;;;5115671;28;20072;-75
2023/12/22 08:05:57;;;;;;;13.57;2.80;;;6.40;99.90;;;;;;5122684;28;20078;-75
2023/12/22 08:08:22;;;;;;;18.15;2.58;;;6.40;99.90;;;;;;5084425;28;20055;-76
2023/12/22 08:10:48;;;;;;;13.82;2.10;;;6.50;99.90;;;;;;5088745;28;20507;-76
2023/12/22 08:13:14;;;;;;;15.88;2.50;;;6.50;99.90;;;;;;5122269;27;20038;-75
2023/12/22 08:15:39;;;;;;;16.92;3.20;;;6.50;99.90;;;;;;5110852;28;20075;-75
2023/12/22 08:18:05;;;;;;;17.95;2.75;;;6.50;99.90;;;;;;5127947;28;20047;-75
2023/12/22 08:20:31;;;;;;;13.85;2.58;;;6.50;99.90;;;;;;5085070;28;20072;-76
2023/12/22 08:22:56;;;;;;;15.32;2.65;;;6.50;99.90;;;;;;5119729;27;20043;-76
2023/12/22 08:25:22;;;;;;;15.55;2.45;;;6.50;99.90;;;;;;5100766;28;20469;-76
2023/12/22 08:27:47;;;;;;;16.80;2.42;;;6.40;99.90;;;;;;5113444;28;20038;-76
2023/12/22 08:30:17;;;;;;;14.90;2.67;;;6.50;99.90;;;;;;5098409;28;20030;-75
2023/12/22 08:32:42;;;;;;;19.58;2.95;;;6.60;99.90;;;;;;5096859;28;20061;-76
2023/12/22 08:35:08;;;;;;;13.95;2.10;;;6.60;99.90;;;;;;5149265;27;20486;-75
2023/12/22 08:37:34;;;;;;;15.63;2.15;;;6.60;99.90;;;;;;5112754;28;20170;-75
2023/12/22 08:39:59;;;;;;;15.60;2.58;;;6.60;99.90;;;;;;5097381;28;20069;-75
2023/12/22 08:42:26;;;;;;;9.60;2.20;;;6.60;99.90;;;;;;5132798;27;20045;-76
2023/12/22 08:44:51;;;;;;;15.60;2.60;;;6.60;99.90;;;;;;5131678;27;20068;-76
2023/12/22 08:47:17;;;;;;;14.20;2.58;;;6.60;99.90;;;;;;5133396;27;20039;-76
2023/12/22 08:49:43;;;;;;;14.95;2.50;;;6.50;99.90;;;;;;5148039;27;20098;-75
2023/12/22 08:52:09;;;;;;;13.32;2.00;;;6.60;99.90;;;;;;5130957;27;20032;-75
2023/12/22 08:54:35;;;;;;;12.45;1.77;;;6.50;99.90;;;;;;5114464;27;20067;-75
2023/12/22 08:57:02;;;;;;;12.63;2.25;;;6.60;99.90;;;;;;5115847;28;20130;-75
2023/12/22 08:59:27;;;;;;;9.70;1.58;;;6.50;99.90;;;;;;5115574;28;20056;-75
2023/12/22 09:01:53;;;;;;;10.25;1.63;;;6.60;99.90;;;;;;5098775;28;20392;-75
2023/12/22 09:04:22;;;;;;;7.05;1.40;;;6.60;99.90;;;;;;5098687;28;20188;-75
2023/12/22 09:06:48;;;;;;;11.05;1.70;;;6.60;99.90;;;;;;5114724;28;20042;-75
2023/12/22 09:09:14;;;;;;;10.73;1.42;;;6.60;99.90;;;;;;5098799;28;20126;-75
2023/12/22 09:11:39;;;;;;;8.07;1.40;;;6.60;99.90;;;;;;5098861;28;20547;-75
2023/12/22 09:14:09;;;;;;;8.75;1.60;;;6.60;99.90;;;;;;5098536;28;20047;-76
2023/12/22 09:16:35;;;;;;;10.70;3.13;;;6.60;99.90;;;;;;5114121;28;20048;-75
2023/12/22 09:19:01;;;;;;;10.48;1.70;;;6.60;99.90;;;;;;5098650;28;20398;-75
2023/12/22 09:21:27;;;;;;;7.63;1.20;;;6.60;99.90;;;;;;5098319;28;20118;-75
2023/12/22 09:23:53;;;;;;;8.93;1.27;;;6.60;99.90;;;;;;5115200;28;20116;-75
2023/12/22 09:26:18;;;;;;;9.02;1.50;;;6.60;99.90;;;;;;5114040;27;20054;-75
2023/12/22 09:28:45;;;;;;;5.25;1.08;;;6.60;99.90;;;;;;5098075;28;20410;-75
2023/12/22 09:31:12;;;;;;;6.70;1.13;;;6.60;99.90;;;;;;5115477;28;20499;-75
2023/12/22 09:33:39;;;;;;;6.90;1.10;;;6.70;99.90;;;;;;5098143;28;20118;-74
2023/12/22 09:36:06;;;;;;;8.02;1.38;;;6.70;99.90;;;;;;5096991;28;20118;-74
2023/12/22 09:38:31;;;;;;;6.25;1.20;;;6.70;99.90;;;;;;5114299;28;20115;-75
2023/12/22 09:40:58;;;;;;;5.32;1.40;;;6.70;99.90;;;;;;5114905;28;20502;-75
2023/12/22 09:43:23;;;;;;;6.60;1.48;;;6.60;99.90;;;;;;5097934;28;20034;-75
2023/12/22 09:45:50;;;;;;;9.13;1.40;;;6.70;99.90;;;;;;5113891;28;20118;-75
2023/12/22 09:48:17;;;;;;;5.25;0.80;;;6.70;99.90;;;;;;5114432;28;20031;-75
2023/12/22 09:50:44;;;;;;;9.40;1.38;;;6.70;99.90;;;;;;5097796;28;20063;-75
2023/12/22 09:53:13;;;;;;;9.88;1.48;;;6.70;99.90;;;;;;5097706;28;20555;-75
2023/12/22 09:55:43;;;;;;;8.73;1.35;;;6.80;99.90;;;;;;5097707;28;20146;-74
2023/12/22 09:58:10;;;;;;;7.18;1.52;;;6.70;99.90;;;;;;5113699;27;20052;-74
2023/12/22 10:00:37;;;;;;;9.13;1.60;;;6.70;99.90;;;;;;5097716;28;20047;-75
2023/12/22 10:03:06;;;;;;;11.95;1.55;;;6.70;99.90;;;;;;5097569;28;20047;-75
2023/12/22 10:05:32;;;;;;;8.45;1.33;;;6.70;99.90;;;;;;5097379;28;20043;-75
2023/12/22 10:08:00;;;;;;;10.18;1.52;;;6.80;99.90;;;;;;5111689;28;20077;-75
2023/12/22 10:10:29;;;;;;;8.48;1.42;;;6.70;99.90;;;;;;5114651;28;20123;-74
2023/12/22 10:12:55;;;;;;;10.40;1.92;;;6.80;99.90;;;;;;5097303;28;20040;-75
2023/12/22 10:15:23;;;;;;;8.15;1.10;;;6.80;99.90;;;;;;5097275;28;20035;-75
2023/12/22 10:17:51;;;;;;;9.52;1.70;;;6.80;99.90;;;;;;5113216;28;20080;-75
2023/12/22 10:20:17;;;;;;;10.32;1.67;;;6.80;99.90;;;;;;5097148;28;20085;-75
2023/12/22 10:22:42;;;;;;;9.05;1.33;;;6.80;99.90;;;;;;5114304;28;20079;-75
2023/12/22 10:25:08;;;;;;;12.63;1.33;;;6.80;99.90;;;;;;5096989;28;20549;-75
2023/12/22 10:27:36;;;;;;;8.50;1.45;;;6.80;99.90;;;;;;5112676;28;20040;-75
2023/12/22 10:30:03;;;;;;;10.73;2.10;;;6.80;99.90;;;;;;5096442;28;20067;-75
2023/12/22 10:32:29;;;;;;;6.35;1.50;;;6.70;99.90;;;;;;5097210;28;20404;-74
2023/12/22 10:34:57;;;;;;;9.60;1.48;;;6.80;99.90;;;;;;5114187;28;20047;-75
2023/12/22 10:37:23;;;;;;;10.90;2.13;;;6.80;99.90;;;;;;5096703;28;20046;-75
2023/12/22 10:39:52;;;;;;;11.40;1.80;;;6.80;99.90;;;;;;5112714;28;20042;-75
2023/12/22 10:42:18;;;;;;;9.50;1.70;;;6.80;99.90;;;;;;5096763;28;20502;-74
2023/12/22 10:44:45;;;;;;;10.85;2.65;;;6.80;99.90;;;;;;5096607;28;20039;-74
2023/12/22 10:47:10;;;;;;;11.68;1.63;;;6.80;99.90;;;;;;5113582;28;20048;-74
2023/12/22 10:49:36;;;;;;;14.48;1.85;;;6.70;99.90;;;;;;5112164;28;20053;-75
2023/12/22 10:52:02;;;;;;;10.30;1.52;;;6.80;99.90;;;;;;5096077;28;20061;-74
2023/12/22 10:54:29;;;;;;;12.45;2.05;;;6.80;99.90;;;;;;5113520;28;20594;-75
2023/12/22 10:57:00;;;;;;;10.43;1.77;;;6.80;99.90;;;;;;5096668;28;20047;-74
2023/12/22 10:59:29;;;;;;;11.00;2.10;;;6.80;99.90;;;;;;5095355;28;20122;-74
2023/12/22 11:01:57;;;;;;;11.40;1.95;;;6.90;99.90;;;;;;5096700;28;20075;-75
2023/12/22 11:04:29;;;;;;;13.52;2.25;;;7.00;99.90;;;;;;5113259;28;20050;-74
2023/12/22 11:06:57;;;;;;;;;;;7.00;99.90;;;;;;5096663;28;20484;-76
2023/12/22 11:09:25;;;;;;;12.75;2.13;;;6.90;99.90;;;;;;5112252;27;19922;-74
2023/12/22 11:11:51;;;;;;;12.32;1.60;;;6.90;99.90;;;;;;5095329;28;20050;-74
2023/12/22 11:14:18;;;;;;;12.73;1.83;;;6.90;99.90;;;;;;5113138;28;20036;-74
2023/12/22 11:16:47;;;;;;;10.85;1.80;;;7.00;99.90;;;;;;5112963;28;20043;-74
2023/12/22 11:19:14;;;;;;;12.10;1.83;;;7.00;99.90;;;;;;5095275;28;20042;-74
2023/12/22 11:21:40;;;;;;;7.82;1.98;;;7.00;99.90;;;;;;5095910;28;20038;-74
2023/12/22 11:24:07;;;;;;;10.75;1.50;;;7.10;99.90;;;;;;5112941;28;20126;-74
2023/12/22 11:26:33;;;;;;;10.60;1.88;;;7.00;99.90;;;;;;5095963;28;20047;-74
2023/12/22 11:28:59;;;;;;;10.07;1.85;;;7.00;99.90;;;;;;5096197;28;20039;-74
2023/12/22 11:31:27;;;;;;;10.70;1.80;;;7.10;99.90;;;;;;5094992;28;20042;-74
2023/12/22 11:33:55;;;;;;;13.18;1.75;;;7.10;99.90;;;;;;5147452;27;20490;-74
2023/12/22 11:36:23;;;;;;;12.30;1.90;;;7.20;99.90;;;;;;5130029;27;20032;-74
2023/12/22 11:38:49;;;;;;;13.45;2.03;;;7.30;99.90;;;;;;5112905;28;20165;-74
2023/12/22 11:41:24;;;;;;;10.90;1.60;;;7.20;99.90;;;;;;5112115;27;20122;-74
2023/12/22 11:43:51;;;;;;;14.30;2.35;;;7.30;99.90;;;;;;5112526;28;20116;-74
2023/12/22 11:46:18;;;;;;;14.02;1.95;;;7.30;99.90;;;;;;5095609;28;20042;-74
2023/12/22 11:48:48;;;;;;;12.32;1.52;;;7.30;99.90;;;;;;5112616;28;20042;-74
2023/12/22 11:51:15;;;;;;;11.45;2.42;;;7.30;99.90;;;;;;5111728;28;20039;-74
2023/12/22 11:53:40;;;;;;;13.85;1.83;;;7.30;99.90;;;;;;5112519;28;20032;-74
2023/12/22 11:56:10;;;;;;;11.80;2.40;;;7.30;99.90;;;;;;5095478;28;20127;-74
2023/12/22 11:58:58;;;;;;;13.68;2.40;;;7.30;99.90;;;;;;5095249;28;20051;-74
2023/12/22 12:01:25;;;;;;;11.68;1.70;;;7.30;99.90;;;;;;5111133;28;20039;-74
2023/12/22 12:03:55;;;;;;;14.18;2.03;;;7.40;99.90;;;;;;5111651;28;20042;-74
2023/12/22 12:06:26;;;;;;;13.10;2.22;;;7.30;99.90;;;;;;5095544;28;20039;-74
2023/12/22 12:08:56;;;;;;;11.68;3.10;;;7.30;99.90;;;;;;5095587;28;20036;-75
2023/12/22 12:11:23;;;;;;;10.90;2.15;;;7.30;99.90;;;;;;5094289;28;20051;-74
2023/12/22 12:13:49;;;;;;;13.80;2.28;;;7.30;99.90;;;;;;5101232;28;20042;-74
2023/12/22 12:16:22;;;;;;;11.98;2.45;;;7.30;99.90;;;;;;5115926;28;20369;-74
2023/12/22 12:18:47;;;;;;;11.77;2.92;;;7.40;99.90;;;;;;5101689;28;20122;-74
2023/12/22 12:21:15;;;;;;;10.40;1.67;;;7.40;99.90;;;;;;5095157;28;20126;-74
2023/12/22 12:23:41;;;;;;;11.48;2.00;;;7.40;99.90;;;;;;5112097;28;20043;-74
2023/12/22 12:26:08;;;;;;;11.27;1.98;;;7.40;99.90;;;;;;5112140;28;20110;-74
2023/12/22 12:28:35;;;;;;;12.55;2.10;;;7.40;99.90;;;;;;5112045;28;20035;-74
2023/12/22 12:31:08;;;;;;;10.88;1.95;;;7.40;99.90;;;;;;5093940;28;20032;-74
2023/12/22 12:33:36;;;;;;;13.65;2.13;;;7.40;99.90;;;;;;5095146;28;20071;-73
2023/12/22 12:36:05;;;;;;;10.45;1.60;;;7.40;99.90;;;;;;5095089;28;20043;-74
2023/12/22 12:38:40;;;;;;;13.38;2.00;;;7.40;99.90;;;;;;5095008;28;20523;-74
2023/12/22 12:41:05;;;;;;;11.65;1.70;;;7.40;99.90;;;;;;5110909;28;20487;-73
2023/12/22 12:43:32;;;;;;;9.13;1.92;;;7.40;99.90;;;;;;5112044;28;20047;-74